createdAt,value
2018-08-27T00:03:41.385Z,2.47
2018-08-27T00:06:28.062Z,2.27
2018-08-27T00:11:56.618Z,2.07
2018-08-27T00:14:28.441Z,2.13
2018-08-27T00:17:04.134Z,2.60
2018-08-27T00:19:35.422Z,2.40
2018-08-27T00:22:27.010Z,2.33
2018-08-27T00:27:58.545Z,2.87
2018-08-27T00:30:40.645Z,2.80
2018-08-27T00:39:26.437Z,2.80
2018-08-27T00:41:57.329Z,2.60
2018-08-27T00:47:26.717Z,2.30
2018-08-27T00:56:01.390Z,3.00
2018-08-27T01:04:27.066Z,3.10
2018-08-27T01:22:04.642Z,3.27
2018-08-27T01:30:51.333Z,2.90
2018-08-27T01:48:16.835Z,2.90
2018-08-27T01:50:46.447Z,3.10
2018-08-27T01:53:17.252Z,3.00
2018-08-27T01:55:52.789Z,2.70
2018-08-27T01:58:26.150Z,3.20
2018-08-27T02:00:56.078Z,3.13
2018-08-27T02:03:26.206Z,3.30
2018-08-27T02:05:57.050Z,2.80
2018-08-27T02:08:32.193Z,2.73
2018-08-27T02:11:03.114Z,3.13
2018-08-27T02:13:35.470Z,3.00
2018-08-27T02:16:05.489Z,3.50
2018-08-27T02:18:35.189Z,3.80
2018-08-27T02:21:05.001Z,2.93
2018-08-27T02:23:34.615Z,3.10
2018-08-27T02:26:33.822Z,3.00
2018-08-27T02:29:16.870Z,3.00
2018-08-27T02:32:01.182Z,3.17
2018-08-27T02:34:37.909Z,3.77
2018-08-27T02:37:09.849Z,3.30
2018-08-27T02:39:53.017Z,3.10
2018-08-27T02:42:25.650Z,3.80
2018-08-27T02:45:01.030Z,3.10
2018-08-27T02:47:32.552Z,3.27
2018-08-27T02:50:08.162Z,2.90
2018-08-27T02:52:44.897Z,3.23
2018-08-27T02:55:29.514Z,3.27
2018-08-27T02:58:02.930Z,3.30
2018-08-27T03:00:43.162Z,3.13
2018-08-27T03:03:19.055Z,3.20
2018-08-27T03:06:13.294Z,3.07
2018-08-27T03:08:58.622Z,3.57
2018-08-27T03:14:18.273Z,3.53
2018-08-27T03:16:59.850Z,3.70
2018-08-27T03:19:44.921Z,3.30
2018-08-27T03:22:18.193Z,2.77
2018-08-27T03:24:49.524Z,3.63
2018-08-27T03:27:26.011Z,3.80
2018-08-27T03:30:22.046Z,3.20
2018-08-27T03:33:21.682Z,3.27
2018-08-27T03:35:55.493Z,3.57
2018-08-27T03:38:31.274Z,3.57
2018-08-27T03:44:15.093Z,3.30
2018-08-27T03:49:39.913Z,3.70
2018-08-27T03:57:49.634Z,3.10
2018-08-27T04:00:33.058Z,2.87
2018-08-27T04:06:16.596Z,3.13
2018-08-27T04:11:52.629Z,3.73
2018-08-27T04:14:46.333Z,3.30
2018-08-27T04:17:25.197Z,4.20
2018-08-27T04:19:54.941Z,3.40
2018-08-27T04:22:59.065Z,2.97
2018-08-27T04:25:30.905Z,3.50
2018-08-27T04:28:01.749Z,3.13
2018-08-27T04:30:32.392Z,2.90
2018-08-27T04:33:04.125Z,3.90
2018-08-27T04:35:35.989Z,3.60
2018-08-27T04:38:05.841Z,3.30
2018-08-27T04:40:43.525Z,2.90
2018-08-27T04:43:13.397Z,2.97
2018-08-27T04:45:45.053Z,3.03
2018-08-27T04:48:14.886Z,3.97
2018-08-27T04:50:52.306Z,3.50
2018-08-27T04:53:21.845Z,4.03
2018-08-27T04:55:52.617Z,3.30
2018-08-27T04:58:28.182Z,4.30
2018-08-27T05:00:58.976Z,2.87
2018-08-27T05:03:42.538Z,3.40
2018-08-27T05:06:23.134Z,3.23
2018-08-27T05:08:52.874Z,3.40
2018-08-27T05:11:24.789Z,3.27
2018-08-27T05:13:54.658Z,3.60
2018-08-27T05:16:37.525Z,3.30
2018-08-27T05:19:15.700Z,3.03
2018-08-27T05:21:46.446Z,3.10
2018-08-27T05:24:19.693Z,2.60
2018-08-27T05:26:52.473Z,3.13
2018-08-27T05:29:22.199Z,2.90
2018-08-27T05:31:53.854Z,2.80
2018-08-27T05:34:24.597Z,3.03
2018-08-27T05:36:54.525Z,2.60
2018-08-27T05:39:24.429Z,2.97
2018-08-27T05:41:54.225Z,2.43
2018-08-27T05:44:23.941Z,2.63
2018-08-27T05:46:55.713Z,2.93
2018-08-27T05:49:25.327Z,2.57
2018-08-27T05:51:58.774Z,3.33
2018-08-27T05:54:29.581Z,3.00
2018-08-27T05:56:59.449Z,2.87
2018-08-27T05:59:32.993Z,2.40
2018-08-27T06:02:03.038Z,3.33
2018-08-27T06:04:33.715Z,2.80
2018-08-27T06:07:04.329Z,2.77
2018-08-27T06:09:34.094Z,2.97
2018-08-27T06:12:08.209Z,2.63
2018-08-27T06:14:47.745Z,2.60
2018-08-27T06:17:18.545Z,2.37
2018-08-27T06:19:49.377Z,2.73
2018-08-27T06:22:19.535Z,2.70
2018-08-27T06:24:55.125Z,2.77
2018-08-27T06:27:24.725Z,2.30
2018-08-27T06:29:57.901Z,3.00
2018-08-27T06:32:27.638Z,2.77
2018-08-27T06:34:57.221Z,2.87
2018-08-27T06:37:27.997Z,3.50
2018-08-27T06:39:58.589Z,2.87
2018-08-27T06:42:28.121Z,2.90
2018-08-27T06:45:20.709Z,2.80
2018-08-27T06:47:51.465Z,2.83
2018-08-27T06:50:25.128Z,2.10
2018-08-27T06:53:22.220Z,2.70
2018-08-27T06:55:52.765Z,2.90
2018-08-27T06:58:24.505Z,2.63
2018-08-27T07:01:02.673Z,2.73
2018-08-27T07:03:55.327Z,3.73
2018-08-27T07:06:31.185Z,3.13
2018-08-27T07:09:09.085Z,3.07
2018-08-27T07:11:52.192Z,2.80
2018-08-27T07:14:34.197Z,2.53
2018-08-27T07:17:03.849Z,2.83
2018-08-27T07:19:33.343Z,2.80
2018-08-27T07:22:23.621Z,2.43
2018-08-27T07:25:01.674Z,3.10
2018-08-27T07:27:45.028Z,2.50
2018-08-27T07:30:22.507Z,2.40
2018-08-27T07:33:08.808Z,2.70
2018-08-27T07:35:41.348Z,2.70
2018-08-27T07:38:14.738Z,3.30
2018-08-27T07:43:45.762Z,2.50
2018-08-27T07:46:15.590Z,3.03
2018-08-27T07:48:46.385Z,2.70
2018-08-27T07:51:22.326Z,2.67
2018-08-27T07:53:55.197Z,3.03
2018-08-27T07:59:35.968Z,2.00
2018-08-27T08:02:07.809Z,1.93
2018-08-27T08:04:43.770Z,2.00
2018-08-27T08:07:16.912Z,2.00
2018-08-27T08:09:54.289Z,2.33
2018-08-27T08:12:23.898Z,2.23
2018-08-27T08:15:06.120Z,2.23
2018-08-27T08:17:36.589Z,2.27
2018-08-27T08:20:14.145Z,2.40
2018-08-27T08:22:55.780Z,2.07
2018-08-27T08:25:28.569Z,2.37
2018-08-27T08:28:05.454Z,2.23
2018-08-27T08:31:04.377Z,2.40
2018-08-27T08:33:34.083Z,1.97
2018-08-27T08:36:05.848Z,2.00
2018-08-27T08:38:52.213Z,2.47
2018-08-27T08:41:24.001Z,1.83
2018-08-27T08:44:05.538Z,1.90
2018-08-27T08:46:36.265Z,1.70
2018-08-27T08:49:18.334Z,2.70
2018-08-27T08:52:06.647Z,1.80
2018-08-27T08:54:37.525Z,1.80
2018-08-27T08:57:07.185Z,1.53
2018-08-27T08:59:50.013Z,1.63
2018-08-27T09:02:21.817Z,2.00
2018-08-27T09:05:08.037Z,1.47
2018-08-27T09:07:48.009Z,3.60
2018-08-27T09:10:23.389Z,1.50
2018-08-27T09:12:56.905Z,1.80
2018-08-27T09:15:56.785Z,1.40
2018-08-27T09:18:27.573Z,2.30
2018-08-27T09:21:07.349Z,2.10
2018-08-27T09:23:40.771Z,1.60
2018-08-27T09:26:22.701Z,1.80
2018-08-27T09:28:52.501Z,1.57
2018-08-27T09:31:23.103Z,1.90
2018-08-27T09:33:58.248Z,1.77
2018-08-27T09:36:42.750Z,2.13
2018-08-27T09:39:12.533Z,2.10
2018-08-27T09:41:42.420Z,1.90
2018-08-27T09:44:15.644Z,2.03
2018-08-27T09:47:01.494Z,1.80
2018-08-27T09:49:40.921Z,2.00
2018-08-27T09:52:11.676Z,1.60
2018-08-27T09:54:46.461Z,1.37
2018-08-27T09:57:16.245Z,1.80
2018-08-27T09:59:49.240Z,1.83
2018-08-27T10:02:20.045Z,2.20
2018-08-27T10:04:53.940Z,2.43
2018-08-27T10:10:19.153Z,1.60
2018-08-27T10:13:13.345Z,1.77
2018-08-27T10:15:44.129Z,1.70
2018-08-27T10:18:17.602Z,1.70
2018-08-27T10:20:47.381Z,1.83
2018-08-27T10:23:18.173Z,1.77
2018-08-27T10:25:53.410Z,1.70
2018-08-27T10:28:23.001Z,1.70
2018-08-27T10:31:11.476Z,1.70
2018-08-27T10:33:49.448Z,1.80
2018-08-27T10:36:22.969Z,2.07
2018-08-27T10:38:52.760Z,1.50
2018-08-27T10:41:23.548Z,1.53
2018-08-27T10:44:06.998Z,1.87
2018-08-27T10:46:38.485Z,1.57
2018-08-27T10:49:07.996Z,1.90
2018-08-27T10:51:37.668Z,1.60
2018-08-27T10:54:12.308Z,1.73
2018-08-27T10:56:45.325Z,2.20
2018-08-27T10:59:24.685Z,1.40
2018-08-27T11:02:02.718Z,2.07
2018-08-27T11:04:43.753Z,1.20
2018-08-27T11:07:17.209Z,1.60
2018-08-27T11:09:48.053Z,1.43
2018-08-27T11:12:17.852Z,1.73
2018-08-27T11:15:04.108Z,1.40
2018-08-27T11:17:34.876Z,1.40
2018-08-27T11:20:04.854Z,1.57
2018-08-27T11:22:38.813Z,1.60
2018-08-27T11:25:22.133Z,1.23
2018-08-27T11:28:00.137Z,1.70
2018-08-27T11:30:34.769Z,1.40
2018-08-27T11:33:16.489Z,1.30
2018-08-27T11:35:47.493Z,1.47
2018-08-27T11:38:22.394Z,1.50
2018-08-27T11:40:59.043Z,1.67
2018-08-27T11:43:51.737Z,1.60
2018-08-27T11:46:48.474Z,1.60
2018-08-27T11:49:23.841Z,1.60
2018-08-27T11:52:00.546Z,1.60
2018-08-27T11:54:31.133Z,1.37
2018-08-27T11:57:09.285Z,2.30
2018-08-27T11:59:43.489Z,1.87
2018-08-27T12:02:24.017Z,1.50
2018-08-27T12:04:54.809Z,1.40
2018-08-27T12:07:27.593Z,1.60
2018-08-27T12:10:00.625Z,1.20
2018-08-27T12:12:35.423Z,2.53
2018-08-27T12:15:07.221Z,1.47
2018-08-27T12:18:41.300Z,1.47
2018-08-27T12:21:21.113Z,1.53
2018-08-27T12:23:54.365Z,1.60
2018-08-27T12:26:32.373Z,1.20
2018-08-27T12:29:06.469Z,1.27
2018-08-27T12:31:37.129Z,1.63
2018-08-27T12:34:12.728Z,1.60
2018-08-27T12:36:59.712Z,1.60
2018-08-27T12:39:29.256Z,1.60
2018-08-27T12:41:58.916Z,1.57
2018-08-27T12:44:29.657Z,1.57
2018-08-27T12:47:09.954Z,1.67
2018-08-27T12:49:58.029Z,1.70
2018-08-27T12:52:52.513Z,1.80
2018-08-27T12:55:23.014Z,2.00
2018-08-27T12:57:57.561Z,1.47
2018-08-27T13:00:27.313Z,1.60
2018-08-27T13:02:57.073Z,1.53
2018-08-27T13:05:26.832Z,1.40
2018-08-27T13:07:56.603Z,1.73
2018-08-27T13:10:39.956Z,1.33
2018-08-27T13:13:21.409Z,2.53
2018-08-27T13:15:53.170Z,1.73
2018-08-27T13:18:22.704Z,1.43
2018-08-27T13:21:04.052Z,1.53
2018-08-27T13:23:39.461Z,1.70
2018-08-27T13:26:21.497Z,1.50
2018-08-27T13:29:01.444Z,1.63
2018-08-27T13:31:44.925Z,1.53
2018-08-27T13:34:14.684Z,1.63
2018-08-27T13:36:48.684Z,1.57
2018-08-27T13:39:18.444Z,1.40
2018-08-27T13:41:52.994Z,1.33
2018-08-27T13:44:22.536Z,1.43
2018-08-27T13:47:04.612Z,1.50
2018-08-27T13:49:45.404Z,1.40
2018-08-27T13:52:19.020Z,1.60
2018-08-27T13:54:53.010Z,1.30
2018-08-27T13:57:28.353Z,1.40
2018-08-27T14:00:06.712Z,1.70
2018-08-27T14:02:43.925Z,1.30
2018-08-27T14:05:30.472Z,1.90
2018-08-27T14:08:04.296Z,1.43
2018-08-27T14:10:33.903Z,1.60
2018-08-27T14:13:03.388Z,1.23
2018-08-27T14:15:34.265Z,1.13
2018-08-27T14:18:05.876Z,1.20
2018-08-27T14:20:41.352Z,1.60
2018-08-27T14:23:20.908Z,1.47
2018-08-27T14:26:01.215Z,1.27
2018-08-27T14:28:31.843Z,1.20
2018-08-27T14:31:05.348Z,1.57
2018-08-27T14:33:35.116Z,1.53
2018-08-27T14:36:07.464Z,1.30
2018-08-27T14:38:38.274Z,1.50
2018-08-27T14:41:13.736Z,1.30
2018-08-27T14:43:44.467Z,1.50
2018-08-27T14:46:21.564Z,1.47
2018-08-27T14:48:57.460Z,1.47
2018-08-27T14:51:31.784Z,1.90
2018-08-27T14:54:01.544Z,1.30
2018-08-27T14:56:44.624Z,1.33
2018-08-27T14:59:14.443Z,1.77
2018-08-27T15:01:47.400Z,1.30
2018-08-27T15:04:21.533Z,1.70
2018-08-27T15:07:02.884Z,1.53
2018-08-27T15:09:34.388Z,1.40
2018-08-27T15:12:20.832Z,1.70
2018-08-27T15:14:50.693Z,1.70
2018-08-27T15:17:21.524Z,2.07
2018-08-27T15:19:52.357Z,1.87
2018-08-27T15:22:21.861Z,1.77
2018-08-27T15:24:51.581Z,2.03
2018-08-27T15:27:21.412Z,1.73
2018-08-27T15:30:20.092Z,1.70
2018-08-27T15:32:49.879Z,1.80
2018-08-27T15:35:21.646Z,1.97
2018-08-27T15:38:06.285Z,1.40
2018-08-27T15:43:43.129Z,1.70
2018-08-27T15:46:27.800Z,1.70
2018-08-27T15:49:01.447Z,1.83
2018-08-27T15:51:31.220Z,2.83
2018-08-27T15:54:19.200Z,2.60
2018-08-27T15:56:58.520Z,1.60
2018-08-27T15:59:34.496Z,1.60
2018-08-27T16:02:14.328Z,1.70
2018-08-27T16:04:58.368Z,2.00
2018-08-27T16:07:42.440Z,2.50
2018-08-27T16:10:14.208Z,2.10
2018-08-27T16:13:03.528Z,1.93
2018-08-27T16:15:58.128Z,1.70
2018-08-27T16:18:32.488Z,1.97
2018-08-27T16:21:19.788Z,2.30
2018-08-27T16:23:56.916Z,1.83
2018-08-27T16:26:47.436Z,1.93
2018-08-27T16:29:21.223Z,2.23
2018-08-27T16:32:07.114Z,1.70
2018-08-27T16:35:03.452Z,2.07
2018-08-27T16:37:34.096Z,2.50
2018-08-27T16:40:08.552Z,2.33
2018-08-27T16:42:43.920Z,2.23
2018-08-27T16:45:16.889Z,2.10
2018-08-27T16:48:04.372Z,1.50
2018-08-27T16:50:34.067Z,2.83
2018-08-27T16:53:14.856Z,3.63
2018-08-27T16:55:54.600Z,1.83
2018-08-27T16:58:44.268Z,1.90
2018-08-27T17:01:20.209Z,2.00
2018-08-27T17:03:50.160Z,1.73
2018-08-27T17:06:21.080Z,1.80
2018-08-27T17:08:51.980Z,1.80
2018-08-27T17:11:25.608Z,1.90
2018-08-27T17:14:00.244Z,1.70
2018-08-27T17:16:31.094Z,1.83
2018-08-27T17:19:09.324Z,2.13
2018-08-27T17:21:41.208Z,1.40
2018-08-27T17:24:14.988Z,2.63
2018-08-27T17:26:45.104Z,2.30
2018-08-27T17:29:18.916Z,1.87
2018-08-27T17:31:48.683Z,2.50
2018-08-27T17:34:18.572Z,2.23
2018-08-27T17:36:59.504Z,2.33
2018-08-27T17:39:43.872Z,2.03
2018-08-27T17:42:19.585Z,2.50
2018-08-27T17:44:49.498Z,2.00
2018-08-27T17:47:22.560Z,1.90
2018-08-27T17:49:57.731Z,2.40
2018-08-27T17:52:30.664Z,2.53
2018-08-27T17:55:00.488Z,2.20
2018-08-27T17:57:31.124Z,1.70
2018-08-27T18:00:01.928Z,1.87
2018-08-27T18:02:36.723Z,1.63
2018-08-27T18:05:09.900Z,1.67
2018-08-27T18:07:40.739Z,2.13
2018-08-27T18:10:12.579Z,2.23
2018-08-27T18:12:49.819Z,1.87
2018-08-27T18:15:20.748Z,2.57
2018-08-27T18:18:00.719Z,3.83
2018-08-27T18:20:32.707Z,3.87
2018-08-27T18:23:02.647Z,2.30
2018-08-27T18:25:34.692Z,1.57
2018-08-27T18:28:11.058Z,1.50
2018-08-27T18:30:42.693Z,1.60
2018-08-27T18:33:12.553Z,2.70
2018-08-27T18:35:46.109Z,1.90
2018-08-27T18:38:19.011Z,1.53
2018-08-27T18:40:48.991Z,1.70
2018-08-27T18:43:19.907Z,1.83
2018-08-27T18:45:53.679Z,1.60
2018-08-27T18:48:23.591Z,1.70
2018-08-27T18:50:59.839Z,2.00
2018-08-27T18:53:29.752Z,1.60
2018-08-27T18:55:59.731Z,1.43
2018-08-27T18:58:30.662Z,1.60
2018-08-27T19:01:05.638Z,2.00
2018-08-27T19:03:36.539Z,2.07
2018-08-27T19:06:17.655Z,1.93
2018-08-27T19:08:50.559Z,1.83
2018-08-27T19:11:21.216Z,1.63
2018-08-27T19:13:57.089Z,1.97
2018-08-27T19:16:32.267Z,2.30
2018-08-27T19:19:02.267Z,2.50
2018-08-27T19:21:46.755Z,1.97
2018-08-27T19:24:18.253Z,1.87
2018-08-27T19:26:48.881Z,1.80
2018-08-27T19:29:19.467Z,2.13
2018-08-27T19:31:51.243Z,1.90
2018-08-27T19:34:20.892Z,2.30
2018-08-27T19:36:50.933Z,1.93
2018-08-27T19:39:20.466Z,1.70
2018-08-27T19:41:50.322Z,1.60
2018-08-27T19:44:22.315Z,2.10
2018-08-27T19:46:54.299Z,1.70
2018-08-27T19:49:24.197Z,1.87
2018-08-27T19:51:54.110Z,1.97
2018-08-27T19:54:28.562Z,1.83
2018-08-27T19:56:58.492Z,1.67
2018-08-27T19:59:31.555Z,1.83
2018-08-27T20:02:01.448Z,2.00
2018-08-27T20:04:35.651Z,1.40
2018-08-27T20:07:06.298Z,1.80
2018-08-27T20:09:36.802Z,1.77
2018-08-27T20:12:08.346Z,2.00
2018-08-27T20:14:44.551Z,2.10
2018-08-27T20:17:14.354Z,1.70
2018-08-27T20:19:49.366Z,1.57
2018-08-27T20:22:21.230Z,2.17
2018-08-27T20:24:52.043Z,1.87
2018-08-27T20:27:26.379Z,1.83
2018-08-27T20:29:56.287Z,2.00
2018-08-27T20:32:25.882Z,2.43
2018-08-27T20:34:55.744Z,2.03
2018-08-27T20:37:25.651Z,1.77
2018-08-27T20:40:00.812Z,1.97
2018-08-27T20:42:34.607Z,2.47
2018-08-27T20:45:19.248Z,2.50
2018-08-27T20:47:50.079Z,2.40
2018-08-27T20:50:20.731Z,2.40
2018-08-27T20:52:51.627Z,2.57
2018-08-27T20:55:22.295Z,3.10
2018-08-27T20:57:59.343Z,3.40
2018-08-27T21:00:32.485Z,3.07
2018-08-27T21:03:07.945Z,2.90
2018-08-27T21:05:41.119Z,2.63
2018-08-27T21:08:20.483Z,3.07
2018-08-27T21:11:15.028Z,3.13
2018-08-27T21:13:46.884Z,2.60
2018-08-27T21:16:22.035Z,2.40
2018-08-27T21:19:02.310Z,2.70
2018-08-27T21:22:58.604Z,2.30
2018-08-27T21:25:30.258Z,2.40
2018-08-27T21:28:03.322Z,3.00
2018-08-27T21:30:33.962Z,2.60
2018-08-27T21:33:04.694Z,2.47
2018-08-27T21:35:34.705Z,2.20
2018-08-27T21:38:17.994Z,2.80
2018-08-27T21:40:50.890Z,2.50
2018-08-27T21:43:20.422Z,2.40
2018-08-27T21:45:51.186Z,2.70
2018-08-27T21:48:20.830Z,2.87
2018-08-27T21:50:52.642Z,2.97
2018-08-27T21:53:23.437Z,2.70
2018-08-27T21:55:53.186Z,2.93
2018-08-27T21:58:26.561Z,2.13
2018-08-27T22:00:58.125Z,3.20
2018-08-27T22:03:34.157Z,2.40
2018-08-27T22:06:12.966Z,2.40
2018-08-27T22:08:43.814Z,2.40
2018-08-27T22:11:14.452Z,2.17
2018-08-27T22:13:44.270Z,2.60
2018-08-27T22:16:15.110Z,3.10
2018-08-27T22:18:47.858Z,2.70
2018-08-27T22:21:19.685Z,3.00
2018-08-27T22:30:55.434Z,2.40
2018-08-27T22:33:30.702Z,2.37
2018-08-27T22:36:02.225Z,2.50
2018-08-27T22:38:32.725Z,2.97
2018-08-27T22:41:02.262Z,2.50
2018-08-27T22:43:34.042Z,2.60
2018-08-27T22:46:05.814Z,2.60
2018-08-27T22:48:35.490Z,2.60
2018-08-27T22:51:05.493Z,2.60
2018-08-27T22:53:40.342Z,2.60
2018-08-27T22:56:12.242Z,2.53
2018-08-27T22:58:45.597Z,2.60
2018-08-27T23:01:15.510Z,2.37
2018-08-27T23:03:54.157Z,2.77
2018-08-27T23:06:36.251Z,2.50
2018-08-27T23:09:08.265Z,2.70
2018-08-27T23:11:38.093Z,2.60
2018-08-27T23:14:09.785Z,2.73
2018-08-27T23:16:39.362Z,2.80
2018-08-27T23:19:09.899Z,2.73
2018-08-27T23:21:39.706Z,3.10
2018-08-27T23:24:13.085Z,3.00
2018-08-27T23:26:46.497Z,3.10
2018-08-27T23:29:30.503Z,3.30
2018-08-27T23:32:01.066Z,3.10
2018-08-27T23:34:32.865Z,3.10
2018-08-27T23:37:03.360Z,2.43
2018-08-27T23:39:34.089Z,3.23
2018-08-27T23:42:16.884Z,2.87
2018-08-27T23:44:51.032Z,2.87
2018-08-27T23:47:21.642Z,2.80
2018-08-27T23:49:52.161Z,2.40
2018-08-27T23:52:22.984Z,2.80
2018-08-27T23:54:52.875Z,2.80
2018-08-27T23:57:23.768Z,3.53
2018-08-27T23:59:59.133Z,3.13
